Flight Track Log - Related Links

Times and Time Zones

All times are in EDT time to prevent confusion due to time zone crossing. See the SWA1903 flight status page for this flight to view local times or setup timezone preferences in your user account.

Time Position Orientation Groundspeed Altitude Reporting Facility
EDT Latitude Longitude Course Direction KTS MPH feet Rate Location/Type
Mon 06:05:16 AM 36.9014 -76.1944 38° Northeast 140 161 900  Level Washington Center
Mon 06:05:40 AM 36.9119 -76.1842 38° Northeast 140 161 2,100 2,206 Climbing Washington Center
Mon 06:06:24 AM 36.9453 -76.1869 356° North 194 223 3,400 2,419 Climbing Washington Center
Mon 06:06:42 AM 36.9536 -76.2106 294° West 227 261 4,600 3,100 Climbing Washington Center
Mon 06:07:24 AM 36.9678 -76.2547 292° West 227 261 6,500 3,765 Climbing Washington Center
Mon 06:08:24 AM 37.0031 -76.3253 302° West 227 261 11,000 4,050 Climbing Washington Center
Mon 06:09:24 AM 37.0378 -76.4167 295° West 258 297 14,600 2,479 Climbing Washington Center
Mon 06:10:25 AM 37.0767 -76.5108 297° West 285 328 16,000 706 Climbing Washington Center
Mon 06:11:23 AM 37.1156 -76.6050 297° West 304 350 16,000  Level Washington Center
Mon 06:12:24 AM 37.1944 -76.6608 331° Northwest 304 350 16,000  Level Washington Center
Mon 06:13:25 AM 37.2839 -76.6933 344° North 304 350 16,000  Level Washington Center
Mon 06:14:24 AM 37.3794 -76.7314 342° North 326 375 16,000  Level Washington Center
Mon 06:15:24 AM 37.4667 -76.7667 342° North 326 375 16,000  Level Washington Center
Mon 06:16:24 AM 37.5561 -76.7994 344° North 326 375 16,000 50 Level Washington Center
Mon 06:17:24 AM 37.6433 -76.8375 341° North 326 375 16,100 50 Climbing Washington Center
Mon 06:18:25 AM 37.7306 -76.8731 342° North 326 375 16,100  Level Washington Center
Mon 06:19:24 AM 37.8178 -76.9089 342° North 326 375 16,100  Level Washington Center
Mon 06:20:24 AM 37.9050 -76.9444 342° North 326 375 16,100  Level Washington Center
Mon 06:21:25 AM 37.9922 -76.9778 343° North 326 375 16,100  Level Washington Center
Mon 06:22:24 AM 38.0792 -77.0136 342° North 326 375 16,100  Level Washington Center
Mon 06:23:24 AM 38.1644 -77.0469 343° North 326 375 16,100  Level Washington Center
Mon 06:24:25 AM 38.2433 -77.0803 342° North 326 375 16,100 -99 Level Washington Center
Mon 06:25:25 AM 38.3344 -77.1217 340° North 326 375 15,900 -700 Descending Washington Center
Mon 06:26:25 AM 38.4181 -77.0994 12° North 307 353 14,700 -1,600 Descending Washington Center
Mon 06:27:25 AM 38.4900 -77.0108 44° Northeast 316 364 12,700 -1,537 Descending Washington Center
Mon 06:28:26 AM 38.5600 -76.9244 44° Northeast 328 377 11,600 -1,109 Descending Washington Center
Mon 06:29:24 AM 38.6256 -76.8406 45° Northeast 333 383 10,500 -1,059 Descending Washington Center
Mon 06:30:25 AM 38.6886 -76.7672 42° Northeast 319 367 9,500 -1,041 Descending Washington Center
Mon 06:31:25 AM 38.7333 -76.6800 57° Northeast 305 351 8,400 -1,292 Descending Washington Center
Mon 06:32:35 AM 38.7833 -76.5667 60° Northeast 287 330 6,700 -1,062 Descending Potomac TRACON
Mon 06:33:35 AM 38.8333 -76.5500 15° North 246 283 6,100 -1,000 Descending Potomac TRACON
Mon 06:34:23 AM 38.9000 -76.5500 360° North 252 290 4,900 -1,389 Descending Potomac TRACON
Mon 06:35:23 AM 38.9667 -76.5667 349° North 244 281 3,600 -1,050 Descending Potomac TRACON
Mon 06:36:23 AM 39.0167 -76.5833 345° North 209 241 2,800 -800 Descending Potomac TRACON
Mon 06:37:23 AM 39.0833 -76.5833 360° North 176 203 2,000 -650 Descending Potomac TRACON
Mon 06:38:23 AM 39.1167 -76.6167 322° Northwest 120 138 1,500 -550 Descending Potomac TRACON
Mon 06:39:23 AM 39.1333 -76.6333 322° Northwest 110 127 900 -600 Descending Potomac TRACON
Mon 06:41:00 AM 39.1667 -76.6667 339° North  Level FlightAware Approximate
Mon 06:48:00 AM 39.1754 -76.6683 339° North  Level Estimated
Mon 06:49:00 AM 39.1754 -76.6683 339° North  Level Estimated
Mon 06:50:00 AM 39.1754 -76.6683 339° North  Level Estimated
Mon 06:51:00 AM 39.1754 -76.6683 339° North  Level Estimated

Login

Don't have an account? Register now (free) for customized features, flight alerts, and more!